Share

Kennan, WI (54537)

Cummings Maple Acres (KWIPHILL2) Elev 1542 ft | 45.64 °N, 90.34 °W | Change Station

Current weather conditions updated 2 seconds ago

Clear
Clear
58.0 °F
Feels Like 58.0 °F
N
1.0
Wind Variable Wind from South
Gusts 6.0 mph
Sunrise 6:08 AM
Sunset 7:55 PM
Moon Waning Gibbous

Today is forecast to be Much Warmer than yesterday.

Pressure 30.04 in
Visibility 10.0 miles
Clouds Clear
Dew Point 50 °F
Humidity 76%
Rainfall 0.11 in
Snow Depth Not available.
UV 5 out of 16
Pollen 8.50 out of 12
Air Quality Not available.
Flu Activity Sporadic
METAR KPBH 201455Z AUTO 23005KT 10SM CLR 14/09 A3004 RMK AO2 T01420086

More Conditions Fewer Conditions

Pressure 30.04 in
Visibility 10.0 miles
Clouds Clear
Dew Point 50 °F
Humidity 76%
Rainfall 0.11 in
Snow Depth Not available.
UV 5 out of 16
Pollen 8.50 out of 12
Air Quality Not available.
Flu Activity Sporadic
METAR KPBH 201455Z AUTO 23005KT 10SM CLR 14/09 A3004 RMK AO2 T01420086

More Conditions Fewer Conditions

10-Day Weather Forecast

Almanac

Astronomy

Apr. 20, 2014 Rise Set
Actual Time 6:08 AM CDT 7:55 PM CDT
Civil Twilight 5:36 AM CDT 8:26 PM CDT
Nautical Twilight 4:58 AM CDT 9:05 PM CDT
Astronomical Twilight 4:16 AM CDT 9:47 PM CDT
Moon 12:41 AM CDT 10:23 AM CDT
Length of Visible Light 14h 50m
Length of Day
13h 47m
Tomorrow will be 2m 58s longer.
Waning Gibbous, 69% of the Moon is Illuminated
Today
Waning Gibbous
Apr 22
Last Quarter
Apr 29
New
May 6
First Quarter
May 14
Full

Today's Extremes

State Highs State Lows

Community

  • Easter Sunrise
    Easter Sunrise
  • Happy Easter
    Happy Easter
  • EARLY FOGGY MORNING
    EARLY FOGGY MORNING
  • Easter Greetings
    Easter Greetings
  • Sunny day at the coast-Cape Arago Lighthouse
    Sunny day at the coast-Cape Arago Lighthouse

WunderPhotos

Upload Photos

1,703,247 photos uploaded!

Nearby

Snow Depth

Station Depth Elevation
No new snow has been reported.

Coastal Water Temperatures

Place Temperature
No Stations Reporting

Earthquake Activity

City Distance Mag. Time & Date
No recent earthquake activity has been reported nearby.
Minimum magnitude displayed is 2.5.

Nearby Weather Stations

Station Location Temp. Windchill Dew Point Humidity Wind Precip. Elev Updated Type
Cummings Maple Acres, Phillips, WI 58.0 °F - 50 °F 76% South  at  1.0 mph 0.00 in / hr 1542 ft 10:08 AM CDT Rapid Fire
Downtown (BP station), Phillips, WI 57.6 °F - 49 °F 74% WSW  at  5.0 mph 0.00 in / hr 1470 ft 9:56 AM CDT Normal
Fifield West, Park Falls, WI 55.2 °F - 49 °F 80% WSW  at  1.7 mph - / hr 1453 ft 10:00 AM CDT Normal
WIDOT Fifield - STH 13 south of Fifield, Fifield, WI 50 °F 48 °F 50 °F 99% SSW  at  5 mph 0.00 in / hr 1450 ft 9:00 AM CDT MADIS

Show More Stations Show Fewer Stations

What do you think?

We're not finished. Please let us know what you like, what you don't like, and what you are still missing.